Hempstead, New York
Current Conditions -  °F | °C
As of 10:51 PM on Tuesday 25 Nov 2014 (Local Time) from KJFK Reporting Station
Overcast Overcast  
Wind Chill: 50°   Ceiling: 17000
Heat Index: 50°   Visibility: 10mi
Dew Point: 31°   Wind: 7mph
Humidity: 48%   Direction: 260°W
Pressure: 30.17"   Gusts: NA
Location:  40.71°N, 73.62°W
Report Text: KJFK 260351Z 26006KT 10SM OVC170 10/M01 A3017 RMK AO2 SLP214 T01001006 $
Loading
Personal Weather Stations






























Interactive Weather Map New forecast layout! Learn more

10-Day Weather Forecast

Advertisements
Track Severe Weather on mobile